sensor_id;sensor_type;location;lat;lon;timestamp;P1;P2;P0
37775;PMS5003;23614;33.774;130.514;2022-09-09T00:01:42;9;9;
37775;PMS5003;23614;33.774;130.514;2022-09-09T00:04:09;14;12;
37775;PMS5003;23614;33.774;130.514;2022-09-09T00:06:33;9;8;
37775;PMS5003;23614;33.774;130.514;2022-09-09T00:09:01;13;12;
37775;PMS5003;23614;33.774;130.514;2022-09-09T00:11:26;11;10;
37775;PMS5003;23614;33.774;130.514;2022-09-09T00:13:50;9;9;
37775;PMS5003;23614;33.774;130.514;2022-09-09T00:16:17;10;8;
37775;PMS5003;23614;33.774;130.514;2022-09-09T00:18:45;12;11;
37775;PMS5003;23614;33.774;130.514;2022-09-09T00:21:10;9;8;
37775;PMS5003;23614;33.774;130.514;2022-09-09T00:23:34;9;9;
37775;PMS5003;23614;33.774;130.514;2022-09-09T00:26:03;13;10;
37775;PMS5003;23614;33.774;130.514;2022-09-09T00:28:26;10;9;
37775;PMS5003;23614;33.774;130.514;2022-09-09T00:30:51;9;9;
37775;PMS5003;23614;33.774;130.514;2022-09-09T00:33:18;11;11;
37775;PMS5003;23614;33.774;130.514;2022-09-09T00:35:44;14;12;
37775;PMS5003;23614;33.774;130.514;2022-09-09T00:38:10;12;11;
37775;PMS5003;23614;33.774;130.514;2022-09-09T00:40:37;14;12;
37775;PMS5003;23614;33.774;130.514;2022-09-09T00:43:09;11;11;
37775;PMS5003;23614;33.774;130.514;2022-09-09T00:45:34;13;12;
37775;PMS5003;23614;33.774;130.514;2022-09-09T00:47:53;11;11;
37775;PMS5003;23614;33.774;130.514;2022-09-09T00:50:27;13;13;
37775;PMS5003;23614;33.774;130.514;2022-09-09T00:52:47;27;26;
37775;PMS5003;23614;33.774;130.514;2022-09-09T00:55:12;23;22;
37775;PMS5003;23614;33.774;130.514;2022-09-09T00:57:38;10;9;
37775;PMS5003;23614;33.774;130.514;2022-09-09T01:00:17;14;12;
37775;PMS5003;23614;33.774;130.514;2022-09-09T01:02:30;10;9;
37775;PMS5003;23614;33.774;130.514;2022-09-09T01:04:58;12;12;
37775;PMS5003;23614;33.774;130.514;2022-09-09T01:07:21;12;11;
37775;PMS5003;23614;33.774;130.514;2022-09-09T01:09:52;11;10;
37775;PMS5003;23614;33.774;130.514;2022-09-09T01:12:15;11;11;
37775;PMS5003;23614;33.774;130.514;2022-09-09T01:14:41;14;13;
37775;PMS5003;23614;33.774;130.514;2022-09-09T01:17:07;11;10;
37775;PMS5003;23614;33.774;130.514;2022-09-09T01:19:37;13;12;
37775;PMS5003;23614;33.774;130.514;2022-09-09T01:21:59;13;13;
37775;PMS5003;23614;33.774;130.514;2022-09-09T01:24:25;13;12;
37775;PMS5003;23614;33.774;130.514;2022-09-09T01:26:50;10;10;
37775;PMS5003;23614;33.774;130.514;2022-09-09T01:29:16;11;10;
37775;PMS5003;23614;33.774;130.514;2022-09-09T01:31:42;13;11;
37775;PMS5003;23614;33.774;130.514;2022-09-09T01:34:10;10;10;
37775;PMS5003;23614;33.774;130.514;2022-09-09T01:36:34;13;9;
37775;PMS5003;23614;33.774;130.514;2022-09-09T01:38:59;12;12;
37775;PMS5003;23614;33.774;130.514;2022-09-09T01:41:25;10;9;
37775;PMS5003;23614;33.774;130.514;2022-09-09T01:43:52;14;11;
37775;PMS5003;23614;33.774;130.514;2022-09-09T01:46:17;8;7;
37775;PMS5003;23614;33.774;130.514;2022-09-09T01:48:43;14;14;
37775;PMS5003;23614;33.774;130.514;2022-09-09T01:51:09;12;12;
37775;PMS5003;23614;33.774;130.514;2022-09-09T01:53:35;10;10;
37775;PMS5003;23614;33.774;130.514;2022-09-09T01:56:04;11;10;
37775;PMS5003;23614;33.774;130.514;2022-09-09T01:58:31;14;11;
37775;PMS5003;23614;33.774;130.514;2022-09-09T02:00:54;11;10;
37775;PMS5003;23614;33.774;130.514;2022-09-09T02:03:21;10;10;
37775;PMS5003;23614;33.774;130.514;2022-09-09T02:05:47;9;9;
37775;PMS5003;23614;33.774;130.514;2022-09-09T02:08:14;11;10;
37775;PMS5003;23614;33.774;130.514;2022-09-09T02:10:39;9;9;
37775;PMS5003;23614;33.774;130.514;2022-09-09T02:13:04;13;12;
37775;PMS5003;23614;33.774;130.514;2022-09-09T02:15:30;10;9;
37775;PMS5003;23614;33.774;130.514;2022-09-09T02:17:55;11;10;
37775;PMS5003;23614;33.774;130.514;2022-09-09T02:20:21;10;9;
37775;PMS5003;23614;33.774;130.514;2022-09-09T02:22:48;11;11;
37775;PMS5003;23614;33.774;130.514;2022-09-09T02:25:14;10;10;
37775;PMS5003;23614;33.774;130.514;2022-09-09T02:27:39;15;12;
37775;PMS5003;23614;33.774;130.514;2022-09-09T02:30:06;10;9;
37775;PMS5003;23614;33.774;130.514;2022-09-09T02:32:33;9;9;
37775;PMS5003;23614;33.774;130.514;2022-09-09T02:34:58;12;11;
37775;PMS5003;23614;33.774;130.514;2022-09-09T02:37:24;13;12;
37775;PMS5003;23614;33.774;130.514;2022-09-09T02:39:49;11;10;
37775;PMS5003;23614;33.774;130.514;2022-09-09T02:42:16;12;11;
37775;PMS5003;23614;33.774;130.514;2022-09-09T02:44:41;11;10;
37775;PMS5003;23614;33.774;130.514;2022-09-09T02:47:13;9;8;
37775;PMS5003;23614;33.774;130.514;2022-09-09T02:49:35;13;11;
37775;PMS5003;23614;33.774;130.514;2022-09-09T02:52:00;11;11;
37775;PMS5003;23614;33.774;130.514;2022-09-09T02:54:27;10;9;
37775;PMS5003;23614;33.774;130.514;2022-09-09T02:56:52;11;10;
37775;PMS5003;23614;33.774;130.514;2022-09-09T02:59:17;12;12;
37775;PMS5003;23614;33.774;130.514;2022-09-09T03:01:43;11;10;
37775;PMS5003;23614;33.774;130.514;2022-09-09T03:04:10;9;8;
37775;PMS5003;23614;33.774;130.514;2022-09-09T03:06:36;11;10;
37775;PMS5003;23614;33.774;130.514;2022-09-09T03:09:02;10;9;
37775;PMS5003;23614;33.774;130.514;2022-09-09T03:11:29;10;9;
37775;PMS5003;23614;33.774;130.514;2022-09-09T03:13:55;10;10;
37775;PMS5003;23614;33.774;130.514;2022-09-09T03:16:19;11;11;
37775;PMS5003;23614;33.774;130.514;2022-09-09T03:18:45;12;10;
37775;PMS5003;23614;33.774;130.514;2022-09-09T03:21:12;13;11;
37775;PMS5003;23614;33.774;130.514;2022-09-09T03:23:37;13;11;
37775;PMS5003;23614;33.774;130.514;2022-09-09T03:26:03;11;9;
37775;PMS5003;23614;33.774;130.514;2022-09-09T03:28:30;11;9;
37775;PMS5003;23614;33.774;130.514;2022-09-09T03:30:58;12;10;
37775;PMS5003;23614;33.774;130.514;2022-09-09T03:33:21;11;10;
37775;PMS5003;23614;33.774;130.514;2022-09-09T03:35:47;11;11;
37775;PMS5003;23614;33.774;130.514;2022-09-09T03:38:13;10;10;
37775;PMS5003;23614;33.774;130.514;2022-09-09T03:40:39;11;11;
37775;PMS5003;23614;33.774;130.514;2022-09-09T03:43:05;15;13;
37775;PMS5003;23614;33.774;130.514;2022-09-09T03:45:31;14;13;
37775;PMS5003;23614;33.774;130.514;2022-09-09T03:47:57;15;14;
37775;PMS5003;23614;33.774;130.514;2022-09-09T03:50:23;16;16;
37775;PMS5003;23614;33.774;130.514;2022-09-09T03:52:49;14;12;
37775;PMS5003;23614;33.774;130.514;2022-09-09T03:55:15;10;10;
37775;PMS5003;23614;33.774;130.514;2022-09-09T03:57:42;10;10;
37775;PMS5003;23614;33.774;130.514;2022-09-09T04:00:08;13;12;
37775;PMS5003;23614;33.774;130.514;2022-09-09T04:02:33;11;11;
37775;PMS5003;23614;33.774;130.514;2022-09-09T04:04:59;10;10;
37775;PMS5003;23614;33.774;130.514;2022-09-09T04:07:25;9;9;
37775;PMS5003;23614;33.774;130.514;2022-09-09T04:09:51;12;11;
37775;PMS5003;23614;33.774;130.514;2022-09-09T04:12:17;16;14;
37775;PMS5003;23614;33.774;130.514;2022-09-09T04:14:43;12;12;
37775;PMS5003;23614;33.774;130.514;2022-09-09T04:17:10;12;11;
37775;PMS5003;23614;33.774;130.514;2022-09-09T04:19:35;13;12;
37775;PMS5003;23614;33.774;130.514;2022-09-09T04:22:01;13;13;
37775;PMS5003;23614;33.774;130.514;2022-09-09T04:24:28;13;12;
37775;PMS5003;23614;33.774;130.514;2022-09-09T04:26:55;14;13;
37775;PMS5003;23614;33.774;130.514;2022-09-09T04:29:19;14;14;
37775;PMS5003;23614;33.774;130.514;2022-09-09T04:31:45;13;12;
37775;PMS5003;23614;33.774;130.514;2022-09-09T04:34:11;13;13;
37775;PMS5003;23614;33.774;130.514;2022-09-09T04:36:37;13;12;
37775;PMS5003;23614;33.774;130.514;2022-09-09T04:39:03;12;12;
37775;PMS5003;23614;33.774;130.514;2022-09-09T04:41:29;12;11;
37775;PMS5003;23614;33.774;130.514;2022-09-09T04:43:55;11;11;
37775;PMS5003;23614;33.774;130.514;2022-09-09T04:46:22;17;13;
37775;PMS5003;23614;33.774;130.514;2022-09-09T04:48:47;13;12;
37775;PMS5003;23614;33.774;130.514;2022-09-09T04:51:14;14;14;
37775;PMS5003;23614;33.774;130.514;2022-09-09T04:53:39;14;13;
37775;PMS5003;23614;33.774;130.514;2022-09-09T04:56:06;13;13;
37775;PMS5003;23614;33.774;130.514;2022-09-09T04:58:31;14;10;
37775;PMS5003;23614;33.774;130.514;2022-09-09T05:01:03;12;12;
37775;PMS5003;23614;33.774;130.514;2022-09-09T05:03:23;11;11;
37775;PMS5003;23614;33.774;130.514;2022-09-09T05:05:49;12;11;
37775;PMS5003;23614;33.774;130.514;2022-09-09T05:08:15;13;12;
37775;PMS5003;23614;33.774;130.514;2022-09-09T05:10:42;11;11;
37775;PMS5003;23614;33.774;130.514;2022-09-09T05:13:07;15;15;
37775;PMS5003;23614;33.774;130.514;2022-09-09T05:15:33;15;14;
37775;PMS5003;23614;33.774;130.514;2022-09-09T05:18:00;15;12;
37775;PMS5003;23614;33.774;130.514;2022-09-09T05:20:27;13;13;
37775;PMS5003;23614;33.774;130.514;2022-09-09T05:22:53;15;12;
37775;PMS5003;23614;33.774;130.514;2022-09-09T05:25:17;13;12;
37775;PMS5003;23614;33.774;130.514;2022-09-09T05:27:44;11;10;
37775;PMS5003;23614;33.774;130.514;2022-09-09T05:30:10;12;11;
37775;PMS5003;23614;33.774;130.514;2022-09-09T05:32:35;16;13;
37775;PMS5003;23614;33.774;130.514;2022-09-09T05:35:02;13;13;
37775;PMS5003;23614;33.774;130.514;2022-09-09T05:37:28;14;12;
37775;PMS5003;23614;33.774;130.514;2022-09-09T05:44:45;16;13;
37775;PMS5003;23614;33.774;130.514;2022-09-09T05:47:11;17;16;
37775;PMS5003;23614;33.774;130.514;2022-09-09T05:49:37;17;14;
37775;PMS5003;23614;33.774;130.514;2022-09-09T05:52:03;14;11;
37775;PMS5003;23614;33.774;130.514;2022-09-09T05:54:29;12;11;
37775;PMS5003;23614;33.774;130.514;2022-09-09T05:56:55;16;14;
37775;PMS5003;23614;33.774;130.514;2022-09-09T05:59:21;16;15;
37775;PMS5003;23614;33.774;130.514;2022-09-09T06:01:47;17;16;
37775;PMS5003;23614;33.774;130.514;2022-09-09T06:04:13;13;12;
37775;PMS5003;23614;33.774;130.514;2022-09-09T06:06:40;17;13;
37775;PMS5003;23614;33.774;130.514;2022-09-09T06:09:06;13;12;
37775;PMS5003;23614;33.774;130.514;2022-09-09T06:11:32;12;12;
37775;PMS5003;23614;33.774;130.514;2022-09-09T06:13:57;12;11;
37775;PMS5003;23614;33.774;130.514;2022-09-09T06:16:24;12;12;
37775;PMS5003;23614;33.774;130.514;2022-09-09T06:18:50;13;12;
37775;PMS5003;23614;33.774;130.514;2022-09-09T06:21:16;14;13;
37775;PMS5003;23614;33.774;130.514;2022-09-09T06:23:42;12;12;
37775;PMS5003;23614;33.774;130.514;2022-09-09T06:26:09;12;12;
37775;PMS5003;23614;33.774;130.514;2022-09-09T06:28:33;13;13;
37775;PMS5003;23614;33.774;130.514;2022-09-09T06:31:00;12;11;
37775;PMS5003;23614;33.774;130.514;2022-09-09T06:33:26;15;13;
37775;PMS5003;23614;33.774;130.514;2022-09-09T06:35:52;11;11;
37775;PMS5003;23614;33.774;130.514;2022-09-09T06:38:17;12;12;
37775;PMS5003;23614;33.774;130.514;2022-09-09T06:40:43;12;11;
37775;PMS5003;23614;33.774;130.514;2022-09-09T06:43:09;14;13;
37775;PMS5003;23614;33.774;130.514;2022-09-09T06:45:35;13;11;
37775;PMS5003;23614;33.774;130.514;2022-09-09T06:48:01;12;12;
37775;PMS5003;23614;33.774;130.514;2022-09-09T06:50:27;16;15;
37775;PMS5003;23614;33.774;130.514;2022-09-09T06:52:53;13;12;
37775;PMS5003;23614;33.774;130.514;2022-09-09T06:55:20;15;14;
37775;PMS5003;23614;33.774;130.514;2022-09-09T06:57:45;13;13;
37775;PMS5003;23614;33.774;130.514;2022-09-09T07:00:12;13;13;
37775;PMS5003;23614;33.774;130.514;2022-09-09T07:02:37;13;13;
37775;PMS5003;23614;33.774;130.514;2022-09-09T07:05:03;18;15;
37775;PMS5003;23614;33.774;130.514;2022-09-09T07:07:29;15;12;
37775;PMS5003;23614;33.774;130.514;2022-09-09T07:09:56;14;14;
37775;PMS5003;23614;33.774;130.514;2022-09-09T07:12:21;17;16;
37775;PMS5003;23614;33.774;130.514;2022-09-09T07:14:47;15;15;
37775;PMS5003;23614;33.774;130.514;2022-09-09T07:17:14;15;15;
37775;PMS5003;23614;33.774;130.514;2022-09-09T07:19:40;15;14;
37775;PMS5003;23614;33.774;130.514;2022-09-09T07:22:06;15;15;
37775;PMS5003;23614;33.774;130.514;2022-09-09T07:24:31;13;12;
37775;PMS5003;23614;33.774;130.514;2022-09-09T07:26:57;14;13;
37775;PMS5003;23614;33.774;130.514;2022-09-09T07:29:23;15;14;
37775;PMS5003;23614;33.774;130.514;2022-09-09T07:31:50;13;13;
37775;PMS5003;23614;33.774;130.514;2022-09-09T07:34:15;13;13;
37775;PMS5003;23614;33.774;130.514;2022-09-09T07:36:41;17;16;
37775;PMS5003;23614;33.774;130.514;2022-09-09T07:39:07;13;13;
37775;PMS5003;23614;33.774;130.514;2022-09-09T07:41:34;15;13;
37775;PMS5003;23614;33.774;130.514;2022-09-09T07:43:58;18;16;
37775;PMS5003;23614;33.774;130.514;2022-09-09T07:46:25;15;13;
37775;PMS5003;23614;33.774;130.514;2022-09-09T07:48:51;14;14;
37775;PMS5003;23614;33.774;130.514;2022-09-09T07:51:17;17;16;
37775;PMS5003;23614;33.774;130.514;2022-09-09T07:53:42;13;13;
37775;PMS5003;23614;33.774;130.514;2022-09-09T07:56:09;14;13;
37775;PMS5003;23614;33.774;130.514;2022-09-09T07:58:34;16;15;
37775;PMS5003;23614;33.774;130.514;2022-09-09T08:01:00;15;15;
37775;PMS5003;23614;33.774;130.514;2022-09-09T08:03:27;11;10;
37775;PMS5003;23614;33.774;130.514;2022-09-09T08:05:52;16;14;
37775;PMS5003;23614;33.774;130.514;2022-09-09T08:08:19;13;13;
37775;PMS5003;23614;33.774;130.514;2022-09-09T08:10:45;14;14;
37775;PMS5003;23614;33.774;130.514;2022-09-09T08:13:10;15;13;
37775;PMS5003;23614;33.774;130.514;2022-09-09T08:15:36;14;12;
37775;PMS5003;23614;33.774;130.514;2022-09-09T08:18:02;19;17;
37775;PMS5003;23614;33.774;130.514;2022-09-09T08:20:29;15;15;
37775;PMS5003;23614;33.774;130.514;2022-09-09T08:22:55;18;17;
37775;PMS5003;23614;33.774;130.514;2022-09-09T08:25:20;12;12;
37775;PMS5003;23614;33.774;130.514;2022-09-09T08:27:47;17;15;
37775;PMS5003;23614;33.774;130.514;2022-09-09T08:30:12;16;16;
37775;PMS5003;23614;33.774;130.514;2022-09-09T08:32:38;18;17;
37775;PMS5003;23614;33.774;130.514;2022-09-09T08:35:04;15;14;
37775;PMS5003;23614;33.774;130.514;2022-09-09T08:37:31;34;34;
37775;PMS5003;23614;33.774;130.514;2022-09-09T08:39:56;20;16;
37775;PMS5003;23614;33.774;130.514;2022-09-09T08:42:27;13;13;
37775;PMS5003;23614;33.774;130.514;2022-09-09T08:44:52;15;15;
37775;PMS5003;23614;33.774;130.514;2022-09-09T08:47:19;23;22;
37775;PMS5003;23614;33.774;130.514;2022-09-09T08:49:46;19;18;
37775;PMS5003;23614;33.774;130.514;2022-09-09T08:52:08;22;21;
37775;PMS5003;23614;33.774;130.514;2022-09-09T08:54:33;20;20;
37775;PMS5003;23614;33.774;130.514;2022-09-09T08:56:58;23;21;
37775;PMS5003;23614;33.774;130.514;2022-09-09T08:59:24;19;18;
37775;PMS5003;23614;33.774;130.514;2022-09-09T09:01:53;24;23;
37775;PMS5003;23614;33.774;130.514;2022-09-09T09:04:22;18;17;
37775;PMS5003;23614;33.774;130.514;2022-09-09T09:06:45;19;18;
37775;PMS5003;23614;33.774;130.514;2022-09-09T09:09:10;16;15;
37775;PMS5003;23614;33.774;130.514;2022-09-09T09:11:35;12;12;
37775;PMS5003;23614;33.774;130.514;2022-09-09T09:14:01;16;14;
37775;PMS5003;23614;33.774;130.514;2022-09-09T09:16:27;16;15;
37775;PMS5003;23614;33.774;130.514;2022-09-09T09:18:54;16;15;
37775;PMS5003;23614;33.774;130.514;2022-09-09T09:21:19;21;17;
37775;PMS5003;23614;33.774;130.514;2022-09-09T09:23:47;18;15;
37775;PMS5003;23614;33.774;130.514;2022-09-09T09:26:10;19;16;
37775;PMS5003;23614;33.774;130.514;2022-09-09T09:28:36;18;17;
37775;PMS5003;23614;33.774;130.514;2022-09-09T09:31:03;24;24;
37775;PMS5003;23614;33.774;130.514;2022-09-09T09:33:29;25;24;
37775;PMS5003;23614;33.774;130.514;2022-09-09T09:35:55;18;15;
37775;PMS5003;23614;33.774;130.514;2022-09-09T09:38:21;17;16;
37775;PMS5003;23614;33.774;130.514;2022-09-09T09:40:50;19;17;
37775;PMS5003;23614;33.774;130.514;2022-09-09T09:43:17;17;17;
37775;PMS5003;23614;33.774;130.514;2022-09-09T09:45:41;17;16;
37775;PMS5003;23614;33.774;130.514;2022-09-09T09:48:05;19;19;
37775;PMS5003;23614;33.774;130.514;2022-09-09T09:50:30;17;17;
37775;PMS5003;23614;33.774;130.514;2022-09-09T09:52:57;19;17;
37775;PMS5003;23614;33.774;130.514;2022-09-09T09:55:22;18;18;
37775;PMS5003;23614;33.774;130.514;2022-09-09T09:57:48;21;18;
37775;PMS5003;23614;33.774;130.514;2022-09-09T10:00:16;18;17;
37775;PMS5003;23614;33.774;130.514;2022-09-09T10:02:41;20;19;
37775;PMS5003;23614;33.774;130.514;2022-09-09T10:05:12;22;22;
37775;PMS5003;23614;33.774;130.514;2022-09-09T10:07:32;21;20;
37775;PMS5003;23614;33.774;130.514;2022-09-09T10:09:58;18;17;
37775;PMS5003;23614;33.774;130.514;2022-09-09T10:12:27;20;20;
37775;PMS5003;23614;33.774;130.514;2022-09-09T10:14:52;20;18;
37775;PMS5003;23614;33.774;130.514;2022-09-09T10:17:18;16;16;
37775;PMS5003;23614;33.774;130.514;2022-09-09T10:19:44;17;17;
37775;PMS5003;23614;33.774;130.514;2022-09-09T10:22:13;20;20;
37775;PMS5003;23614;33.774;130.514;2022-09-09T10:24:41;22;19;
37775;PMS5003;23614;33.774;130.514;2022-09-09T10:27:01;21;20;
37775;PMS5003;23614;33.774;130.514;2022-09-09T10:29:30;22;19;
37775;PMS5003;23614;33.774;130.514;2022-09-09T10:31:54;22;21;
37775;PMS5003;23614;33.774;130.514;2022-09-09T10:34:22;21;20;
37775;PMS5003;23614;33.774;130.514;2022-09-09T10:36:46;25;22;
37775;PMS5003;23614;33.774;130.514;2022-09-09T10:39:13;20;19;
37775;PMS5003;23614;33.774;130.514;2022-09-09T10:41:40;23;20;
37775;PMS5003;23614;33.774;130.514;2022-09-09T10:44:10;17;17;
37775;PMS5003;23614;33.774;130.514;2022-09-09T10:46:29;16;16;
37775;PMS5003;23614;33.774;130.514;2022-09-09T10:48:58;16;16;
37775;PMS5003;23614;33.774;130.514;2022-09-09T10:51:25;15;15;
37775;PMS5003;23614;33.774;130.514;2022-09-09T10:53:49;18;16;
37775;PMS5003;23614;33.774;130.514;2022-09-09T10:56:13;18;17;
37775;PMS5003;23614;33.774;130.514;2022-09-09T10:58:40;15;15;
37775;PMS5003;23614;33.774;130.514;2022-09-09T11:01:09;16;14;
37775;PMS5003;23614;33.774;130.514;2022-09-09T11:03:30;17;16;
37775;PMS5003;23614;33.774;130.514;2022-09-09T11:05:57;14;13;
37775;PMS5003;23614;33.774;130.514;2022-09-09T11:08:23;13;12;
37775;PMS5003;23614;33.774;130.514;2022-09-09T11:10:50;9;9;
37775;PMS5003;23614;33.774;130.514;2022-09-09T11:13:15;12;11;
37775;PMS5003;23614;33.774;130.514;2022-09-09T11:15:41;9;9;
37775;PMS5003;23614;33.774;130.514;2022-09-09T11:18:08;9;8;
37775;PMS5003;23614;33.774;130.514;2022-09-09T11:20:32;7;6;
37775;PMS5003;23614;33.774;130.514;2022-09-09T11:22:59;10;10;
37775;PMS5003;23614;33.774;130.514;2022-09-09T11:25:25;11;10;
37775;PMS5003;23614;33.774;130.514;2022-09-09T11:27:54;8;8;
37775;PMS5003;23614;33.774;130.514;2022-09-09T11:30:19;9;8;
37775;PMS5003;23614;33.774;130.514;2022-09-09T11:32:47;11;9;
37775;PMS5003;23614;33.774;130.514;2022-09-09T11:35:14;9;9;
37775;PMS5003;23614;33.774;130.514;2022-09-09T11:37:40;9;9;
37775;PMS5003;23614;33.774;130.514;2022-09-09T11:40:07;9;8;
37775;PMS5003;23614;33.774;130.514;2022-09-09T11:42:26;8;8;
37775;PMS5003;23614;33.774;130.514;2022-09-09T11:44:52;8;8;
37775;PMS5003;23614;33.774;130.514;2022-09-09T11:47:20;7;7;
37775;PMS5003;23614;33.774;130.514;2022-09-09T11:49:44;9;9;
37775;PMS5003;23614;33.774;130.514;2022-09-09T11:52:12;9;9;
37775;PMS5003;23614;33.774;130.514;2022-09-09T11:54:44;7;7;
37775;PMS5003;23614;33.774;130.514;2022-09-09T11:57:02;10;9;
37775;PMS5003;23614;33.774;130.514;2022-09-09T11:59:29;11;10;
37775;PMS5003;23614;33.774;130.514;2022-09-09T12:01:55;10;8;
37775;PMS5003;23614;33.774;130.514;2022-09-09T12:04:37;11;10;
37775;PMS5003;23614;33.774;130.514;2022-09-09T12:06:48;12;11;
37775;PMS5003;23614;33.774;130.514;2022-09-09T12:09:22;10;10;
37775;PMS5003;23614;33.774;130.514;2022-09-09T12:11:38;8;8;
37775;PMS5003;23614;33.774;130.514;2022-09-09T12:14:18;8;7;
37775;PMS5003;23614;33.774;130.514;2022-09-09T12:16:31;9;8;
37775;PMS5003;23614;33.774;130.514;2022-09-09T12:19:03;9;8;
37775;PMS5003;23614;33.774;130.514;2022-09-09T12:21:25;6;6;
37775;PMS5003;23614;33.774;130.514;2022-09-09T12:23:49;6;5;
37775;PMS5003;23614;33.774;130.514;2022-09-09T12:26:19;7;7;
37775;PMS5003;23614;33.774;130.514;2022-09-09T12:28:43;7;7;
37775;PMS5003;23614;33.774;130.514;2022-09-09T12:31:07;12;8;
37775;PMS5003;23614;33.774;130.514;2022-09-09T12:33:34;8;7;
37775;PMS5003;23614;33.774;130.514;2022-09-09T12:35:58;6;6;
37775;PMS5003;23614;33.774;130.514;2022-09-09T12:38:27;6;6;
37775;PMS5003;23614;33.774;130.514;2022-09-09T12:40:54;7;7;
37775;PMS5003;23614;33.774;130.514;2022-09-09T12:43:17;5;4;
37775;PMS5003;23614;33.774;130.514;2022-09-09T12:45:42;6;6;
37775;PMS5003;23614;33.774;130.514;2022-09-09T12:48:09;6;5;
37775;PMS5003;23614;33.774;130.514;2022-09-09T12:50:35;7;7;
37775;PMS5003;23614;33.774;130.514;2022-09-09T12:53:02;6;5;
37775;PMS5003;23614;33.774;130.514;2022-09-09T12:55:28;6;3;
37775;PMS5003;23614;33.774;130.514;2022-09-09T12:57:52;4;4;
37775;PMS5003;23614;33.774;130.514;2022-09-09T13:00:19;7;5;
37775;PMS5003;23614;33.774;130.514;2022-09-09T13:02:49;6;6;
37775;PMS5003;23614;33.774;130.514;2022-09-09T13:05:14;5;4;
37775;PMS5003;23614;33.774;130.514;2022-09-09T13:07:36;5;5;
37775;PMS5003;23614;33.774;130.514;2022-09-09T13:10:02;5;5;
37775;PMS5003;23614;33.774;130.514;2022-09-09T13:12:28;5;5;
37775;PMS5003;23614;33.774;130.514;2022-09-09T13:14:55;5;4;
37775;PMS5003;23614;33.774;130.514;2022-09-09T13:17:21;8;5;
37775;PMS5003;23614;33.774;130.514;2022-09-09T13:19:47;5;3;
37775;PMS5003;23614;33.774;130.514;2022-09-09T13:22:12;7;5;
37775;PMS5003;23614;33.774;130.514;2022-09-09T13:24:38;6;4;
37775;PMS5003;23614;33.774;130.514;2022-09-09T13:27:05;4;4;
37775;PMS5003;23614;33.774;130.514;2022-09-09T13:29:31;3;3;
37775;PMS5003;23614;33.774;130.514;2022-09-09T13:32:03;4;4;
37775;PMS5003;23614;33.774;130.514;2022-09-09T13:34:26;5;4;
37775;PMS5003;23614;33.774;130.514;2022-09-09T13:36:48;4;4;
37775;PMS5003;23614;33.774;130.514;2022-09-09T13:39:15;5;4;
37775;PMS5003;23614;33.774;130.514;2022-09-09T13:41:42;4;4;
37775;PMS5003;23614;33.774;130.514;2022-09-09T13:44:06;3;3;
37775;PMS5003;23614;33.774;130.514;2022-09-09T13:46:33;4;3;
37775;PMS5003;23614;33.774;130.514;2022-09-09T13:48:59;4;3;
37775;PMS5003;23614;33.774;130.514;2022-09-09T13:51:28;4;3;
37775;PMS5003;23614;33.774;130.514;2022-09-09T13:53:50;6;4;
37775;PMS5003;23614;33.774;130.514;2022-09-09T13:56:17;4;4;
37775;PMS5003;23614;33.774;130.514;2022-09-09T13:58:42;6;4;
37775;PMS5003;23614;33.774;130.514;2022-09-09T14:01:08;4;3;
37775;PMS5003;23614;33.774;130.514;2022-09-09T14:03:34;3;3;
37775;PMS5003;23614;33.774;130.514;2022-09-09T14:06:00;4;4;
37775;PMS5003;23614;33.774;130.514;2022-09-09T14:08:26;5;3;
37775;PMS5003;23614;33.774;130.514;2022-09-09T14:10:52;5;4;
37775;PMS5003;23614;33.774;130.514;2022-09-09T14:13:18;2;2;
37775;PMS5003;23614;33.774;130.514;2022-09-09T14:15:44;7;7;
37775;PMS5003;23614;33.774;130.514;2022-09-09T14:18:11;6;5;
37775;PMS5003;23614;33.774;130.514;2022-09-09T14:20:37;8;5;
37775;PMS5003;23614;33.774;130.514;2022-09-09T14:23:02;5;4;
37775;PMS5003;23614;33.774;130.514;2022-09-09T14:25:28;4;3;
37775;PMS5003;23614;33.774;130.514;2022-09-09T14:27:54;5;5;
37775;PMS5003;23614;33.774;130.514;2022-09-09T14:30:20;6;4;
37775;PMS5003;23614;33.774;130.514;2022-09-09T14:32:47;4;3;
37775;PMS5003;23614;33.774;130.514;2022-09-09T14:35:12;5;2;
37775;PMS5003;23614;33.774;130.514;2022-09-09T14:37:38;2;2;
37775;PMS5003;23614;33.774;130.514;2022-09-09T14:40:04;4;4;
37775;PMS5003;23614;33.774;130.514;2022-09-09T14:42:31;5;4;
37775;PMS5003;23614;33.774;130.514;2022-09-09T14:44:56;3;3;
37775;PMS5003;23614;33.774;130.514;2022-09-09T14:47:22;5;4;
37775;PMS5003;23614;33.774;130.514;2022-09-09T14:49:48;5;4;
37775;PMS5003;23614;33.774;130.514;2022-09-09T14:52:14;8;7;
37775;PMS5003;23614;33.774;130.514;2022-09-09T14:54:40;5;4;
37775;PMS5003;23614;33.774;130.514;2022-09-09T14:57:06;7;4;
37775;PMS5003;23614;33.774;130.514;2022-09-09T14:59:32;7;3;
37775;PMS5003;23614;33.774;130.514;2022-09-09T15:01:58;4;3;
37775;PMS5003;23614;33.774;130.514;2022-09-09T15:04:24;7;6;
37775;PMS5003;23614;33.774;130.514;2022-09-09T15:06:50;6;4;
37775;PMS5003;23614;33.774;130.514;2022-09-09T15:09:16;3;3;
37775;PMS5003;23614;33.774;130.514;2022-09-09T15:11:42;4;3;
37775;PMS5003;23614;33.774;130.514;2022-09-09T15:14:08;5;3;
37775;PMS5003;23614;33.774;130.514;2022-09-09T15:16:34;5;4;
37775;PMS5003;23614;33.774;130.514;2022-09-09T15:19:01;5;4;
37775;PMS5003;23614;33.774;130.514;2022-09-09T15:21:27;6;4;
37775;PMS5003;23614;33.774;130.514;2022-09-09T15:23:52;6;4;
37775;PMS5003;23614;33.774;130.514;2022-09-09T15:26:18;6;5;
37775;PMS5003;23614;33.774;130.514;2022-09-09T15:28:44;6;5;
37775;PMS5003;23614;33.774;130.514;2022-09-09T15:31:12;6;3;
37775;PMS5003;23614;33.774;130.514;2022-09-09T15:33:36;5;5;
37775;PMS5003;23614;33.774;130.514;2022-09-09T15:36:12;6;5;
37775;PMS5003;23614;33.774;130.514;2022-09-09T15:38:28;7;5;
37775;PMS5003;23614;33.774;130.514;2022-09-09T15:40:54;3;3;
37775;PMS5003;23614;33.774;130.514;2022-09-09T15:43:20;5;5;
37775;PMS5003;23614;33.774;130.514;2022-09-09T15:45:46;7;5;
37775;PMS5003;23614;33.774;130.514;2022-09-09T15:48:12;3;3;
37775;PMS5003;23614;33.774;130.514;2022-09-09T15:50:38;6;5;
37775;PMS5003;23614;33.774;130.514;2022-09-09T15:53:04;7;6;